Time;durP1;ratioP1;P1;durP2;ratioP2;P2;SDS_P1;SDS_P2;PMS_P1;PMS_P2;Temp;Humidity;BMP_temperature;BMP_pressure;BME280_temperature;BME280_humidity;BME280_pressure;Samples;Min_cycle;Max_cycle;Signal;HPM_P1;HPM_P2
2021/05/20 00:00:50;;;;;;;;;0.00;0.00;;;;;21.67;36.69;102112.16;5094001;27;50283;-59
2021/05/20 00:03:16;;;;;;;;;0.00;0.00;;;;;21.67;36.32;102112.16;5094950;27;45754;-59
2021/05/20 00:05:42;;;;;;;;;0.00;0.00;;;;;21.67;36.65;102109.50;5094934;27;45496;-59
2021/05/20 00:08:08;;;;;;;;;0.00;0.00;;;;;21.67;36.36;102111.31;5093787;27;45873;-59
2021/05/20 00:10:34;;;;;;;;;0.00;0.00;;;;;21.67;37.15;102112.16;5094441;27;47445;-59
2021/05/20 00:12:59;;;;;;;;;0.00;0.00;;;;;21.68;36.38;102107.72;5094768;27;45541;-59
2021/05/20 00:15:25;;;;;;;;;0.00;0.00;;;;;21.67;36.81;102104.19;5094647;27;45812;-59
2021/05/20 00:17:50;;;;;;;;;0.00;0.00;;;;;21.68;36.53;102107.72;5094374;27;45470;-59
2021/05/20 00:20:17;;;;;;;;;0.00;0.00;;;;;21.67;36.45;102106.00;5077547;27;45650;-59
2021/05/20 00:22:42;;;;;;;;;0.00;0.00;;;;;21.68;36.23;102105.91;5074024;28;45693;-59
2021/05/20 00:25:09;;;;;;;;;0.00;0.00;;;;;21.69;36.24;102104.97;5074292;27;45707;-59
2021/05/20 00:27:35;;;;;;;;;0.00;0.00;;;;;21.69;36.25;102115.59;5074082;28;45818;-59
2021/05/20 00:30:03;;;;;;;;;0.00;0.00;;;;;21.69;36.34;102110.28;5072684;28;46129;-59
2021/05/20 00:32:29;;;;;;;;;0.00;0.00;;;;;21.70;36.32;102108.47;5073664;28;45707;-59
2021/05/20 00:34:54;;;;;;;;;0.00;0.00;;;;;21.69;36.57;102112.94;5073510;28;45471;-59
2021/05/20 00:37:20;;;;;;;;;0.00;0.00;;;;;21.71;36.62;102110.22;5074415;28;45487;-59
2021/05/20 00:39:46;;;;;;;;;0.00;0.00;;;;;21.70;36.23;102112.00;5073737;28;45402;-60
2021/05/20 00:42:12;;;;;;;;;0.00;0.00;;;;;21.70;36.30;102116.44;5072900;28;45569;-58
2021/05/20 00:44:53;;;;;;;;;0.00;0.00;;;;;21.69;36.21;102107.63;5074041;28;45557;-59
2021/05/20 00:47:20;;;;;;;;;0.00;0.00;;;;;21.68;36.52;102113.88;5084086;27;45819;-59
2021/05/20 00:49:46;;;;;;;;;0.00;0.00;;;;;21.68;36.31;102115.69;5093971;27;45994;-59
2021/05/20 00:52:11;;;;;;;;;0.00;0.00;;;;;21.68;36.51;102121.00;5093114;27;45529;-59
2021/05/20 00:54:37;;;;;;;;;0.75;0.00;;;;;21.68;36.43;102118.34;5094155;27;45533;-59
2021/05/20 00:57:04;;;;;;;;;0.00;0.00;;;;;21.67;36.26;102114.81;5093981;27;45342;-59
2021/05/20 00:59:29;;;;;;;;;0.00;0.00;;;;;21.68;36.42;102124.53;5093958;27;47591;-59
2021/05/20 01:01:55;;;;;;;;;0.00;0.00;;;;;21.68;36.47;102121.00;5092926;27;45676;-60
2021/05/20 01:04:20;;;;;;;;;0.00;0.00;;;;;21.68;36.37;102123.66;5094047;27;45509;-59
2021/05/20 01:06:46;;;;;;;;;0.00;0.00;;;;;21.68;36.24;102124.53;5094047;27;45468;-59
2021/05/20 01:09:11;;;;;;;;;0.00;0.00;;;;;21.64;36.15;102122.97;5093200;27;53244;-59
2021/05/20 01:11:37;;;;;;;;;0.00;0.00;;;;;21.67;36.23;102125.44;5092530;27;45699;-59
2021/05/20 01:14:03;;;;;;;;;0.00;0.00;;;;;21.61;36.20;102115.19;5091995;27;45827;-59
2021/05/20 01:16:29;;;;;;;;;0.00;0.00;;;;;21.67;36.18;102128.09;5073498;28;45758;-59
2021/05/20 01:18:54;;;;;;;;;0.00;0.00;;;;;21.64;36.49;102129.13;5073152;28;46307;-59
2021/05/20 01:21:21;;;;;;;;;0.00;0.00;;;;;21.66;36.24;102129.06;5073458;28;45515;-59
2021/05/20 01:23:46;;;;;;;;;0.75;0.00;;;;;21.67;35.98;102124.59;5073075;28;45798;-59
2021/05/20 01:26:13;;;;;;;;;0.00;0.00;;;;;21.61;36.17;102109.84;5072653;28;45491;-59
2021/05/20 01:28:39;;;;;;;;;0.00;0.00;;;;;21.66;36.34;102128.22;5072983;28;45432;-59
2021/05/20 01:31:06;;;;;;;;;0.00;0.00;;;;;21.66;36.38;102122.91;5072898;28;45481;-59
2021/05/20 01:33:31;;;;;;;;;0.00;0.00;;;;;21.64;36.53;102129.13;5073075;28;45531;-59
2021/05/20 01:35:57;;;;;;;;;0.00;0.00;;;;;21.64;36.21;102123.81;5071804;28;45499;-59
2021/05/20 01:41:06;;;;;;;;;0.00;0.00;;;;;21.67;36.17;102128.09;5073003;28;45825;-59
2021/05/20 01:43:38;;;;;;;;;0.00;0.00;;;;;21.68;36.30;102129.84;5073629;28;46035;-59
2021/05/20 01:46:05;;;;;;;;;0.00;0.00;;;;;21.67;36.01;102117.47;5071871;28;45432;-59
2021/05/20 01:48:34;;;;;;;;;0.00;0.00;;;;;21.70;36.19;102127.06;5077786;27;45636;-59
2021/05/20 01:51:10;;;;;;;;;0.00;0.00;;;;;21.70;36.35;102127.94;5093303;27;45760;-59
2021/05/20 01:53:38;;;;;;;;;0.00;0.00;;;;;21.72;36.28;102117.25;5093589;27;45607;-59
2021/05/20 01:56:05;;;;;;;;;0.00;0.00;;;;;21.73;36.16;102127.81;5092079;27;45525;-59
2021/05/20 01:58:31;;;;;;;;;1.00;0.00;;;;;21.73;36.12;102127.81;5093081;27;46264;-59
2021/05/20 02:00:58;;;;;;;;;0.00;0.00;;;;;21.74;35.90;102129.50;5093041;27;46088;-59
2021/05/20 02:03:25;;;;;;;;;0.00;0.00;;;;;21.69;36.30;102117.38;5093236;27;45881;-59
2021/05/20 02:05:51;;;;;;;;;0.00;0.00;;;;;21.74;36.18;102133.97;5072706;27;45473;-59
2021/05/20 02:08:16;;;;;;;;;0.00;0.00;;;;;21.74;35.94;102137.50;5078522;27;46218;-60
2021/05/20 02:10:42;;;;;;;;;0.00;0.00;;;;;21.71;36.11;102132.34;5092641;27;45403;-59
2021/05/20 02:13:09;;;;;;;;;0.00;0.00;;;;;21.74;36.00;102134.81;5092912;27;45420;-59
2021/05/20 02:15:37;;;;;;;;;0.00;0.00;;;;;21.74;36.10;102123.31;5093039;27;45555;-59
2021/05/20 02:18:04;;;;;;;;;0.00;0.00;;;;;21.73;35.97;102133.13;5091805;27;46768;-59
2021/05/20 02:20:30;;;;;;;;;1.00;0.00;;;;;21.71;36.18;102131.50;5074178;27;45703;-59
2021/05/20 02:22:56;;;;;;;;;0.00;0.00;;;;;21.74;35.81;102133.97;5073729;28;45689;-59
2021/05/20 02:25:21;;;;;;;;;0.00;0.00;;;;;21.74;36.19;102131.31;5076347;28;45454;-59
2021/05/20 02:27:47;;;;;;;;;0.00;0.00;;;;;21.74;35.77;102134.81;5075821;28;45511;-59
2021/05/20 02:30:13;;;;;;;;;0.00;0.00;;;;;21.73;35.99;102130.47;5074867;28;45482;-59
2021/05/20 02:32:38;;;;;;;;;0.00;0.00;;;;;21.71;36.05;102127.03;5075605;28;45696;-59
2021/05/20 02:35:06;;;;;;;;;0.00;0.00;;;;;21.66;35.76;102115.75;5075872;28;45687;-59
2021/05/20 02:37:31;;;;;;;;;0.00;0.00;;;;;21.72;35.90;102119.91;5075748;28;45717;-59
2021/05/20 02:39:57;;;;;;;;;0.00;0.00;;;;;21.73;36.12;102117.16;5074595;28;45724;-59
2021/05/20 02:42:23;;;;;;;;;0.00;0.00;;;;;21.75;36.02;102119.72;5075875;28;45746;-59
2021/05/20 02:44:48;;;;;;;;;0.00;0.00;;;;;21.59;35.92;102096.66;5075744;28;45473;-59
2021/05/20 02:47:14;;;;;;;;;0.00;0.00;;;;;21.70;36.06;102100.47;5075371;28;47828;-59
2021/05/20 02:49:39;;;;;;;;;0.00;0.00;;;;;21.75;35.80;102111.75;5075391;28;45408;-59
2021/05/20 02:52:05;;;;;;;;;1.00;0.00;;;;;21.75;35.80;102103.75;5076617;27;45847;-60
2021/05/20 02:54:31;;;;;;;;;0.00;0.00;;;;;21.75;35.71;102095.78;5096362;27;45694;-59
2021/05/20 02:56:58;;;;;;;;;0.00;0.00;;;;;21.77;36.08;102107.19;5095698;27;46114;-59
2021/05/20 02:59:23;;;;;;;;;0.00;0.00;;;;;21.71;35.66;102087.13;5096008;27;45582;-59
2021/05/20 03:01:49;;;;;;;;;0.00;0.00;;;;;21.77;35.69;102093.91;5095668;27;45765;-59
2021/05/20 03:04:15;;;;;;;;;0.00;0.00;;;;;21.77;35.94;102092.09;5095272;27;45529;-59
2021/05/20 03:06:41;;;;;;;;;0.00;0.00;;;;;21.77;35.98;102094.75;5095609;27;46409;-61
2021/05/20 03:09:09;;;;;;;;;0.00;0.00;;;;;21.78;35.62;102087.63;5077119;27;45918;-59
2021/05/20 03:11:36;;;;;;;;;0.00;0.00;;;;;21.80;35.79;102088.38;5095722;27;45469;-59
2021/05/20 03:14:02;;;;;;;;;0.00;0.00;;;;;21.79;35.66;102078.69;5095006;27;45537;-59
2021/05/20 03:16:28;;;;;;;;;0.00;0.00;;;;;21.82;35.87;102085.63;5095490;27;47301;-59
2021/05/20 03:18:53;;;;;;;;;0.00;0.00;;;;;21.82;35.73;102085.63;5089289;27;45778;-60
2021/05/20 03:21:20;;;;;;;;;0.00;0.00;;;;;21.83;35.51;102082.91;5075429;28;45474;-59
2021/05/20 03:23:46;;;;;;;;;0.00;0.00;;;;;21.84;35.64;102078.44;5075206;28;45824;-60
2021/05/20 03:26:12;;;;;;;;;0.00;0.00;;;;;21.85;35.50;102081.00;5073842;28;46089;-60
2021/05/20 03:28:37;;;;;;;;;0.00;0.00;;;;;21.82;36.02;102075.00;5075106;28;45574;-60
2021/05/20 03:31:03;;;;;;;;;0.00;0.00;;;;;21.87;35.60;102080.91;5091652;27;45527;-60
2021/05/20 03:33:28;;;;;;;;;0.00;0.00;;;;;21.86;35.37;102085.38;5095161;27;45551;-60
2021/05/20 03:35:57;;;;;;;;;0.00;0.00;;;;;21.87;35.41;102081.78;5093072;27;46163;-60
2021/05/20 03:38:23;;;;;;;;;0.00;0.00;;;;;21.88;35.58;102087.94;5095621;27;45525;-60
2021/05/20 03:40:48;;;;;;;;;0.00;0.00;;;;;21.89;35.51;102090.50;5095471;27;45600;-60
2021/05/20 03:43:14;;;;;;;;;0.00;0.00;;;;;21.90;35.36;102088.72;5095470;27;45399;-60
2021/05/20 03:45:40;;;;;;;;;0.00;0.00;;;;;21.90;35.66;102086.88;5095123;27;45602;-60
2021/05/20 03:48:06;;;;;;;;;0.00;0.00;;;;;21.91;35.66;102079.78;5093953;27;45474;-59
2021/05/20 03:50:32;;;;;;;;;0.00;0.00;;;;;21.91;35.82;102074.47;5095141;27;45592;-60
2021/05/20 03:53:00;;;;;;;;;0.00;0.00;;;;;21.90;35.38;102075.41;5095139;27;45457;-60
2021/05/20 03:55:26;;;;;;;;;0.00;0.00;;;;;21.90;35.45;102068.28;5095095;27;45447;-60
2021/05/20 03:57:51;;;;;;;;;0.00;0.00;;;;;21.97;35.77;102082.06;5109528;27;45831;-60
2021/05/20 04:00:17;;;;;;;;;0.00;0.00;;;;;21.97;35.47;102081.22;5115754;27;45675;-62
2021/05/20 04:02:44;;;;;;;;;0.00;0.00;;;;;21.93;35.18;102075.22;5115903;27;45375;-60
2021/05/20 04:05:11;;;;;;;;;0.00;0.00;;;;;21.98;35.49;102089.09;5115133;27;47421;-60
2021/05/20 04:07:36;;;;;;;;;0.00;0.00;;;;;21.99;35.28;102085.50;5115257;27;45516;-60
2021/05/20 04:10:03;;;;;;;;;0.00;0.00;;;;;21.99;35.19;102079.31;5114226;27;45557;-60
2021/05/20 04:12:29;;;;;;;;;0.00;0.00;;;;;22.02;35.66;102087.97;5115732;27;45465;-60
2021/05/20 04:14:54;;;;;;;;;0.00;0.00;;;;;22.03;35.42;102079.03;5115174;27;45500;-60
2021/05/20 04:17:20;;;;;;;;;0.00;0.00;;;;;22.04;35.25;102090.53;5115176;27;45465;-60
2021/05/20 04:19:45;;;;;;;;;0.75;0.00;;;;;22.04;35.47;102083.41;5094904;27;45665;-59
2021/05/20 04:22:12;;;;;;;;;0.00;0.00;;;;;22.04;35.15;102086.06;5085612;27;45591;-59
2021/05/20 04:24:37;;;;;;;;;0.00;0.00;;;;;22.07;35.58;102085.00;5094508;27;46117;-60
2021/05/20 04:27:05;;;;;;;;;0.00;0.00;;;;;22.09;35.22;102087.59;5094520;27;45748;-60
2021/05/20 04:29:30;;;;;;;;;0.00;0.00;;;;;22.10;35.18;102083.97;5094518;27;45553;-60
2021/05/20 04:31:56;;;;;;;;;0.00;0.00;;;;;22.09;35.08;102085.78;5093747;27;45456;-60
2021/05/20 04:34:21;;;;;;;;;0.00;0.00;;;;;22.09;35.14;102080.47;5093997;27;46086;-60
2021/05/20 04:36:49;;;;;;;;;0.00;0.00;;;;;22.11;35.24;102085.72;5094213;27;45520;-60
2021/05/20 04:39:14;;;;;;;;;0.00;0.00;;;;;22.13;35.25;102086.47;5094743;27;45415;-60
2021/05/20 04:41:40;;;;;;;;;0.00;0.00;;;;;22.14;35.17;102082.84;5094492;27;45656;-60
2021/05/20 04:44:08;;;;;;;;;0.00;0.00;;;;;22.16;35.19;102073.81;5093157;27;45794;-60
2021/05/20 04:46:34;;;;;;;;;0.00;0.00;;;;;22.16;34.97;102067.66;5094165;27;45613;-60
2021/05/20 04:49:02;;;;;;;;;0.00;0.00;;;;;22.17;34.86;102078.19;5094109;27;45477;-60
2021/05/20 04:51:27;;;;;;;;;0.00;0.00;;;;;22.17;35.15;102072.88;5094530;27;45499;-59
2021/05/20 04:53:52;;;;;;;;;0.00;0.00;;;;;22.20;35.07;102073.66;5092963;27;46278;-60
2021/05/20 04:56:23;;;;;;;;;0.00;0.00;;;;;22.22;35.33;102085.03;5093839;27;45772;-60
2021/05/20 04:58:54;;;;;;;;;0.00;0.00;;;;;22.22;34.96;102083.25;5094124;27;45421;-60
2021/05/20 05:01:21;;;;;;;;;0.00;0.00;;;;;22.25;35.20;102087.53;5094337;27;45491;-60
2021/05/20 05:03:46;;;;;;;;;0.25;0.00;;;;;22.24;34.84;102080.50;5093826;27;46627;-60
2021/05/20 05:06:11;;;;;;;;;0.00;0.00;;;;;22.25;35.06;102087.53;5092786;27;45628;-60
2021/05/20 05:08:37;;;;;;;;;0.00;0.00;;;;;22.25;34.92;102085.69;5093863;27;45910;-60
2021/05/20 05:11:02;;;;;;;;;0.00;0.00;;;;;22.26;34.83;102083.91;5093426;27;45512;-60
2021/05/20 05:13:28;;;;;;;;;0.00;0.00;;;;;22.25;35.07;102085.69;5071943;28;48382;-59
2021/05/20 05:15:55;;;;;;;;;0.00;0.00;;;;;22.27;34.76;102088.28;5072232;28;45347;-59
2021/05/20 05:18:21;;;;;;;;;0.00;0.00;;;;;22.25;34.67;102096.34;5073351;27;45423;-59
2021/05/20 05:20:46;;;;;;;;;0.00;0.00;;;;;22.25;35.42;102093.69;5073926;27;45542;-59
2021/05/20 05:23:13;;;;;;;;;0.00;0.00;;;;;22.26;35.08;102091.88;5093454;27;48462;-60
2021/05/20 05:25:39;;;;;;;;;0.00;0.00;;;;;22.28;34.83;102097.97;5093291;27;45497;-59
2021/05/20 05:28:05;;;;;;;;;0.00;0.00;;;;;22.27;34.92;102090.94;5092482;27;45458;-59
2021/05/20 05:30:32;;;;;;;;;0.00;0.00;;;;;22.27;34.89;102094.47;5093805;27;45414;-59
2021/05/20 05:32:57;;;;;;;;;0.00;0.00;;;;;22.25;34.77;102088.34;5093064;27;46971;-59
2021/05/20 05:35:23;;;;;;;;;0.00;0.00;;;;;22.26;35.20;102083.91;5092827;27;45697;-59
2021/05/20 05:37:49;;;;;;;;;0.00;0.00;;;;;22.27;35.33;102082.94;5093332;27;45373;-60
2021/05/20 05:40:15;;;;;;;;;0.00;0.00;;;;;22.28;35.02;102095.28;5092811;27;45790;-60
2021/05/20 05:42:41;;;;;;;;;0.00;0.00;;;;;22.26;35.11;102086.56;5093331;27;46127;-59
2021/05/20 05:45:07;;;;;;;;;0.00;0.00;;;;;22.28;34.83;102082.84;5093171;27;45867;-59
2021/05/20 05:47:35;;;;;;;;;0.00;0.00;;;;;22.28;35.02;102095.28;5075097;27;45432;-59
2021/05/20 05:50:06;;;;;;;;;0.00;0.00;;;;;22.25;34.84;102087.53;5092447;27;45576;-59
2021/05/20 05:52:33;;;;;;;;;0.00;0.00;;;;;22.25;34.89;102091.03;5093140;27;45497;-59
2021/05/20 05:54:58;;;;;;;;;0.00;0.00;;;;;22.28;34.95;102096.16;5092796;27;45716;-59
2021/05/20 05:57:23;;;;;;;;;0.00;0.00;;;;;22.29;34.70;102092.56;5092577;27;45404;-59
2021/05/20 05:59:49;;;;;;;;;0.00;0.00;;;;;22.29;34.70;102087.22;5092865;27;45493;-60
2021/05/20 06:02:17;;;;;;;;;0.00;0.00;;;;;22.29;34.88;102087.22;5092324;27;46898;-59
2021/05/20 06:04:42;;;;;;;;;0.00;0.00;;;;;22.29;34.88;102089.88;5092867;27;46172;-59
2021/05/20 06:07:08;;;;;;;;;0.00;0.00;;;;;22.29;34.82;102079.25;5092898;27;45391;-59
2021/05/20 06:09:33;;;;;;;;;0.00;0.00;;;;;22.33;34.75;102084.38;5093100;27;45861;-59
2021/05/20 06:12:00;;;;;;;;;0.00;0.00;;;;;22.33;34.85;102087.88;5091623;27;45949;-59
2021/05/20 06:14:27;;;;;;;;;0.25;0.00;;;;;22.33;34.81;102082.56;5092956;27;45525;-62
2021/05/20 06:16:52;;;;;;;;;0.75;0.00;;;;;22.35;34.75;102083.34;5092778;27;45644;-61
2021/05/20 06:19:18;;;;;;;;;0.00;0.00;;;;;22.33;34.70;102076.41;5093192;27;45768;-61
2021/05/20 06:21:43;;;;;;;;;0.50;0.00;;;;;22.36;34.60;102082.38;5092583;27;46296;-61
2021/05/20 06:24:10;;;;;;;;;0.00;0.00;;;;;22.37;34.85;102073.44;5091765;27;45565;-61
2021/05/20 06:26:36;;;;;;;;;0.00;0.00;;;;;22.34;34.72;102068.34;5092865;27;45476;-61
2021/05/20 06:29:02;;;;;;;;;0.00;0.00;;;;;22.40;34.54;102069.75;5074583;27;45689;-61
2021/05/20 06:31:29;;;;;;;;;0.00;0.00;;;;;22.40;34.82;102075.06;5092727;27;45999;-61
2021/05/20 06:33:54;;;;;;;;;0.00;0.00;;;;;22.40;35.04;102077.72;5091388;27;45430;-61
2021/05/20 06:36:20;;;;;;;;;0.00;0.00;;;;;22.40;34.63;102077.72;5092704;27;45917;-61
2021/05/20 06:38:47;;;;;;;;;0.00;0.00;;;;;22.40;34.76;102077.72;5092650;27;45842;-62
2021/05/20 06:41:13;;;;;;;;;0.00;0.00;;;;;22.41;34.73;102087.41;5092206;27;47277;-61
2021/05/20 06:43:38;;;;;;;;;0.00;0.00;;;;;22.35;34.73;102077.16;5092398;27;45517;-61
2021/05/20 06:46:05;;;;;;;;;0.00;0.00;;;;;22.40;34.49;102085.72;5091493;27;45627;-60
2021/05/20 06:48:31;;;;;;;;;0.00;0.00;;;;;22.32;35.13;102074.69;5092504;27;45471;-60
2021/05/20 06:50:58;;;;;;;;;0.00;0.00;;;;;22.38;34.69;102085.78;5092257;27;46344;-61
2021/05/20 06:53:25;;;;;;;;;0.00;0.00;;;;;22.38;34.58;102087.63;5075128;27;45620;-59
2021/05/20 06:55:57;;;;;;;;;0.00;0.00;;;;;22.37;34.80;102088.59;5071244;28;45854;-62
2021/05/20 07:01:09;;;;;;;;;0.00;0.00;;;;;22.38;34.55;102092.94;5077890;27;46160;-61
2021/05/20 07:03:34;;;;;;;;;0.00;0.00;;;;;22.31;34.65;102073.84;5074268;27;45682;-59
2021/05/20 07:06:00;;;;;;;;;1.00;0.00;;;;;22.38;35.11;102087.63;5070510;28;45586;-59
2021/05/20 07:08:26;;;;;;;;;0.00;0.00;;;;;22.37;34.71;102092.06;5077309;27;45630;-59
2021/05/20 07:10:56;;;;;;;;;0.00;0.00;;;;;22.37;34.82;102092.06;5089146;27;46972;-60
2021/05/20 07:13:22;;;;;;;;;0.00;0.00;;;;;22.36;35.12;102084.19;5093407;27;45985;-60
2021/05/20 07:15:48;;;;;;;;;0.00;0.00;;;;;22.28;34.88;102077.53;5074986;28;45700;-61
2021/05/20 07:18:15;;;;;;;;;0.00;0.00;;;;;22.34;35.12;102086.09;5078013;27;45493;-61
2021/05/20 07:20:41;;;;;;;;;0.00;0.00;;;;;22.29;35.23;102079.25;5095443;27;45469;-60
2021/05/20 07:23:11;;;;;;;;;0.00;0.00;;;;;22.34;34.88;102086.09;5085137;27;45727;-61
2021/05/20 07:25:37;;;;;;;;;0.00;0.00;;;;;22.33;35.28;102081.72;5095549;27;45425;-61
2021/05/20 07:28:03;;;;;;;;;0.00;0.00;;;;;22.32;35.01;102080.03;5094384;27;45486;-60
2021/05/20 07:30:31;;;;;;;;;0.00;0.00;;;;;22.27;35.11;102069.63;5094178;27;46042;-60
2021/05/20 07:32:56;;;;;;;;;0.00;0.00;;;;;22.33;35.07;102079.91;5094859;27;45609;-66
2021/05/20 07:35:22;;;;;;;;;0.00;0.00;;;;;22.21;34.60;102060.25;5094977;27;45565;-65
2021/05/20 07:37:48;;;;;;;;;0.00;0.00;;;;;22.24;34.68;102078.66;5095682;27;45776;-67
2021/05/20 07:40:15;;;;;;;;;0.00;0.00;;;;;22.16;34.39;102070.31;5094166;27;46351;-66
2021/05/20 07:42:41;;;;;;;;;0.00;0.00;;;;;22.04;34.29;102070.09;5095135;27;45471;-66
2021/05/20 07:45:08;;;;;;;;;0.00;0.00;;;;;21.88;34.15;102048.03;5094950;27;45711;-66
2021/05/20 07:47:33;;;;;;;;;0.00;0.00;;;;;21.86;34.24;102060.59;5094902;27;45444;-66
2021/05/20 07:50:00;;;;;;;;;0.00;0.00;;;;;21.80;34.25;102053.81;5086963;27;46832;-67
2021/05/20 07:52:25;;;;;;;;;0.00;0.00;;;;;21.79;34.40;102061.91;5084290;27;45787;-68
2021/05/20 07:54:53;;;;;;;;;0.00;0.00;;;;;21.75;34.32;102054.09;5090150;27;45522;-66
2021/05/20 07:57:19;;;;;;;;;0.00;0.00;;;;;21.68;33.98;102036.78;5059215;28;45437;-67
2021/05/20 07:59:45;;;;;;;;;0.00;0.00;;;;;21.62;34.06;102050.41;5078195;27;46121;-68
2021/05/20 08:02:17;;;;;;;;;0.00;0.00;;;;;21.59;34.39;102045.28;5092395;27;45402;-67
2021/05/20 08:04:45;;;;;;;;;0.00;0.00;;;;;21.51;34.19;102027.97;5094457;27;45504;-67
2021/05/20 08:07:49;;;;;;;;;0.00;0.00;;;;;21.54;34.30;102026.94;5091053;27;45702;-67
2021/05/20 08:12:29;;;;;;;;;0.00;0.00;;;;;21.59;34.42;102038.16;5088998;27;46605;-66
2021/05/20 08:14:56;;;;;;;;;0.00;0.00;;;;;21.59;34.39;102027.53;5081703;27;45750;-69
2021/05/20 08:17:22;;;;;;;;;0.00;0.00;;;;;21.62;34.41;102018.50;5081525;27;45855;-69
2021/05/20 08:19:47;;;;;;;;;0.00;0.00;;;;;21.71;34.36;102025.13;5083890;27;46071;-68
2021/05/20 08:22:13;;;;;;;;;0.00;0.00;;;;;21.68;34.51;102025.28;5075504;27;45415;-58
2021/05/20 08:24:38;;;;;;;;;0.00;0.00;;;;;21.56;34.38;101997.63;5080786;27;46329;-59
2021/05/20 08:27:04;;;;;;;;;0.00;0.00;;;;;21.82;34.59;102021.81;5079710;27;45465;-59
2021/05/20 08:29:31;;;;;;;;;0.00;0.00;;;;;21.93;34.84;102024.66;5081301;27;46994;-58
2021/05/20 08:31:56;;;;;;;;;0.00;0.00;;;;;22.06;34.79;102019.47;5079566;27;45631;-62
2021/05/20 08:34:23;;;;;;;;;0.25;0.00;;;;;22.00;35.10;101983.47;5080746;27;48108;-59
2021/05/20 08:36:49;;;;;;;;;0.00;0.00;;;;;22.29;34.60;102007.38;5076709;27;45717;-59
2021/05/20 08:39:16;;;;;;;;;0.00;0.00;;;;;22.43;35.04;102006.50;5090070;27;47210;-58
2021/05/20 08:41:42;;;;;;;;;0.00;0.00;;;;;22.56;34.36;102005.78;5086049;27;45614;-60
2021/05/20 08:44:11;;;;;;;;;0.00;0.00;;;;;22.70;34.74;102007.53;5084392;27;45822;-61
2021/05/20 08:46:38;;;;;;;;;1.00;0.00;;;;;22.82;34.62;102001.41;5082993;27;45612;-60
2021/05/20 08:49:16;;;;;;;;;0.00;0.00;;;;;22.94;34.81;101998.91;5085446;27;46240;-60
2021/05/20 08:51:47;;;;;;;;;0.00;0.00;;;;;23.07;34.38;102001.59;5081691;27;45902;-61
2021/05/20 08:54:14;;;;;;;;;0.00;0.00;;;;;23.16;34.50;101992.16;5076019;27;45640;-59
2021/05/20 08:56:44;;;;;;;;;0.00;0.00;;;;;23.29;34.08;101985.03;5088811;27;45711;-59
2021/05/20 08:59:10;;;;;;;;;0.00;0.00;;;;;23.38;34.25;101982.75;5089810;27;47366;-61
2021/05/20 09:01:41;;;;;;;;;0.00;0.00;;;;;23.46;33.94;101985.72;5089015;27;45550;-60
2021/05/20 09:04:09;;;;;;;;;0.00;0.00;;;;;23.53;34.41;101989.69;5080524;27;45774;-60
2021/05/20 09:06:42;;;;;;;;;0.00;0.00;;;;;23.54;33.93;101983.41;5085773;27;45473;-59
2021/05/20 09:09:18;;;;;;;;;0.00;0.00;;;;;23.60;33.58;101982.97;5083695;27;47110;-58
2021/05/20 09:11:53;;;;;;;;;0.00;0.00;;;;;23.62;34.16;101966.88;5086910;27;45636;-60
2021/05/20 09:14:36;;;;;;;;;0.00;0.00;;;;;23.65;33.85;101963.97;5084807;27;45736;-59
2021/05/20 09:17:20;;;;;;;;;0.00;0.00;;;;;23.66;34.44;101971.03;5090512;27;45574;-59
2021/05/20 09:20:07;;;;;;;;;0.00;0.00;;;;;23.67;34.21;101958.53;5082066;27;46247;-59
2021/05/20 09:22:35;;;;;;;;;0.00;0.00;;;;;23.67;34.50;101958.53;5081426;27;45663;-59
2021/05/20 09:25:01;;;;;;;;;0.00;0.00;;;;;23.66;34.52;101964.84;5081652;27;45873;-59
2021/05/20 09:27:31;;;;;;;;;0.00;0.00;;;;;23.65;34.18;101969.31;5092201;27;45519;-59
2021/05/20 09:30:17;;;;;;;;;0.00;0.00;;;;;23.65;34.37;101977.31;5087176;27;46389;-59
2021/05/20 09:32:47;;;;;;;;;0.00;0.00;;;;;23.62;34.45;101978.38;5078106;27;45690;-62
2021/05/20 09:35:14;;;;;;;;;0.00;0.00;;;;;23.62;34.33;101966.88;5084315;27;45664;-58
2021/05/20 09:37:50;;;;;;;;;0.00;0.00;;;;;23.62;34.74;101956.22;5074864;27;45645;-60
2021/05/20 09:40:18;;;;;;;;;0.00;0.00;;;;;23.61;34.62;101955.34;5077142;27;47709;-61
2021/05/20 09:42:48;;;;;;;;;0.00;0.00;;;;;23.61;34.51;101952.69;5071823;27;45755;-59
2021/05/20 09:45:17;;;;;;;;;0.00;0.00;;;;;23.60;34.63;101944.78;5073663;27;45576;-61
2021/05/20 09:47:43;;;;;;;;;0.00;0.00;;;;;23.56;35.07;101944.16;5077266;27;45570;-61
2021/05/20 09:50:12;;;;;;;;;0.00;0.00;;;;;23.43;34.43;101920.16;5076795;27;45986;-60
2021/05/20 09:52:37;;;;;;;;;0.00;0.00;;;;;23.54;34.62;101938.06;5081614;27;45689;-58
2021/05/20 09:55:25;;;;;;;;;0.50;0.00;;;;;23.53;34.74;101938.19;5075843;27;45693;-59
2021/05/20 09:57:53;;;;;;;;;0.00;0.00;;;;;23.52;35.14;101949.81;5082141;27;45624;-59
2021/05/20 10:00:24;;;;;;;;;0.00;0.00;;;;;23.51;34.68;101948.09;5080144;27;46114;-59
2021/05/20 10:03:10;;;;;;;;;0.00;0.00;;;;;23.51;34.53;101938.28;5083877;27;45816;-59
2021/05/20 10:05:48;;;;;;;;;0.00;0.00;;;;;23.48;34.80;101923.34;5076987;27;45571;-59
2021/05/20 10:08:16;;;;;;;;;0.00;0.00;;;;;23.47;34.53;101918.97;5076756;27;45639;-60
2021/05/20 10:10:45;;;;;;;;;0.00;0.00;;;;;23.49;34.97;101924.22;5079015;27;46012;-60
2021/05/20 10:13:13;;;;;;;;;0.00;0.00;;;;;23.48;34.79;101917.19;5076371;27;45993;-58
2021/05/20 10:15:42;;;;;;;;;0.00;0.00;;;;;23.47;34.84;101908.31;5080491;27;45793;-59
2021/05/20 10:18:11;;;;;;;;;0.00;0.00;;;;;23.47;34.45;101902.97;5074562;27;45861;-59
2021/05/20 10:20:39;;;;;;;;;0.00;0.00;;;;;23.48;34.86;101903.84;5079501;27;46398;-59
2021/05/20 10:23:13;;;;;;;;;0.00;0.00;;;;;23.49;35.37;101898.41;5078145;27;45981;-58
2021/05/20 10:25:41;;;;;;;;;0.00;0.00;;;;;23.52;34.95;101891.16;5057137;27;45533;-60
2021/05/20 10:28:09;;;;;;;;;0.00;0.00;;;;;23.52;34.94;101897.34;5077371;27;47947;-60
2021/05/20 10:30:36;;;;;;;;;0.00;0.00;;;;;23.53;35.42;101899.03;5077387;27;45927;-61
2021/05/20 10:33:03;;;;;;;;;0.00;0.00;;;;;23.55;35.23;101878.44;5077374;27;45989;-59
2021/05/20 10:35:58;;;;;;;;;0.00;0.00;;;;;23.58;35.11;101886.25;5076436;27;45564;-58
2021/05/20 10:38:30;;;;;;;;;0.00;0.00;;;;;23.61;35.70;101879.84;5060245;27;45594;-60
2021/05/20 10:41:07;;;;;;;;;0.00;0.00;;;;;23.62;35.23;101887.72;5080177;27;46177;-59
2021/05/20 10:43:33;;;;;;;;;0.00;0.00;;;;;23.63;35.12;101872.56;5074342;27;45797;-57
2021/05/20 10:46:11;;;;;;;;;0.00;0.00;;;;;23.45;35.16;101827.59;5080562;27;45640;-58
2021/05/20 10:48:37;;;;;;;;;0.00;0.00;;;;;23.65;35.64;101859.97;5083097;27;45916;-58
2021/05/20 10:51:06;;;;;;;;;0.00;0.00;;;;;23.67;35.06;101866.06;5084404;27;46264;-59
2021/05/20 10:53:40;;;;;;;;;0.00;0.00;;;;;23.67;35.54;101852.72;5083244;27;45545;-58
2021/05/20 10:56:29;;;;;;;;;0.00;0.00;;;;;23.68;35.52;101854.44;5079677;27;45494;-59
2021/05/20 10:58:58;;;;;;;;;0.00;0.00;;;;;23.68;35.35;101854.44;5077045;27;45640;-61
2021/05/20 11:01:24;;;;;;;;;0.00;0.00;;;;;23.68;35.36;101843.75;5085432;27;47314;-62
2021/05/20 11:04:00;;;;;;;;;0.00;0.00;;;;;23.68;34.93;101840.22;5078859;27;46868;-61
2021/05/20 11:06:38;;;;;;;;;0.00;0.00;;;;;23.66;35.65;101835.03;5088381;27;45806;-61
2021/05/20 11:09:05;;;;;;;;;0.00;0.00;;;;;23.67;35.58;101839.41;5080074;27;45510;-61
2021/05/20 11:11:30;;;;;;;;;0.00;0.00;;;;;23.68;35.51;101848.22;5084257;27;45775;-59
2021/05/20 11:13:57;;;;;;;;;0.00;0.00;;;;;23.67;35.29;101855.41;5079347;27;45412;-61
2021/05/20 11:16:33;;;;;;;;;0.00;0.00;;;;;23.60;35.55;101846.09;5085851;27;45962;-62
2021/05/20 11:19:28;;;;;;;;;0.00;0.00;;;;;23.68;35.63;101851.75;5084026;27;45631;-60
2021/05/20 11:22:13;;;;;;;;;0.00;0.00;;;;;23.69;34.99;101844.63;5086308;27;46228;-60
2021/05/20 11:24:42;;;;;;;;;0.00;0.00;;;;;23.68;35.27;101830.44;5083035;27;46824;-60
2021/05/20 11:27:15;;;;;;;;;0.00;0.00;;;;;23.68;35.29;101832.22;5081391;27;45760;-59
2021/05/20 11:29:43;;;;;;;;;0.00;0.00;;;;;23.69;35.78;101828.63;5084309;27;45456;-59
2021/05/20 11:32:25;;;;;;;;;0.00;0.00;;;;;23.67;35.91;101820.72;5085531;27;46178;-59
2021/05/20 11:37:42;;;;;;;;;0.00;0.00;;;;;23.71;35.90;101813.34;5081525;27;45701;-60